createdAt,value
2018-05-26T00:01:47.264Z,101999.41
2018-05-26T00:04:17.213Z,101996.99
2018-05-26T00:06:48.619Z,101999.64
2018-05-26T00:09:20.269Z,101999.92
2018-05-26T00:11:54.499Z,102001.36
2018-05-26T00:14:26.080Z,101996.74
2018-05-26T00:16:57.350Z,101993.98
2018-05-26T00:19:30.129Z,102001.51
2018-05-26T00:22:00.315Z,101997.42
2018-05-26T00:24:34.646Z,101994.03
2018-05-26T00:27:06.147Z,101985.41
2018-05-26T00:29:37.609Z,101991.16
2018-05-26T00:32:10.763Z,101995.63
2018-05-26T00:34:42.208Z,101995.14
2018-05-26T00:37:15.181Z,101998.09
2018-05-26T00:39:49.561Z,101994.38
2018-05-26T00:42:22.526Z,101995.81
2018-05-26T00:44:55.407Z,101997.23
2018-05-26T00:47:27.119Z,101991.93
2018-05-26T00:50:00.500Z,101995.27
2018-05-26T00:52:30.400Z,101989.47
2018-05-26T00:55:01.842Z,101994.23
2018-05-26T00:57:34.686Z,101988.34
2018-05-26T01:00:06.389Z,101995.46
2018-05-26T01:02:39.329Z,101989.48
2018-05-26T01:05:12.216Z,101990.14
2018-05-26T01:07:46.621Z,101995.59
2018-05-26T01:10:17.608Z,101992.09
2018-05-26T01:12:50.881Z,101987.80
2018-05-26T01:15:23.203Z,101986.30
2018-05-26T01:17:57.600Z,101981.03
2018-05-26T01:20:31.759Z,101985.86
2018-05-26T01:23:01.830Z,101980.44
2018-05-26T01:25:34.775Z,101988.16
2018-05-26T01:28:07.615Z,101991.09
2018-05-26T01:30:40.713Z,101995.75
2018-05-26T01:33:12.702Z,101997.41
2018-05-26T01:35:44.401Z,102000.63
2018-05-26T01:38:15.880Z,101994.62
2018-05-26T01:40:47.285Z,101992.09
2018-05-26T01:43:19.126Z,101984.72
2018-05-26T01:45:51.263Z,101985.44
2018-05-26T01:48:22.549Z,101978.30
2018-05-26T01:50:53.349Z,101976.02
2018-05-26T01:53:26.224Z,101977.19
2018-05-26T01:55:57.866Z,101973.59
2018-05-26T01:58:29.306Z,101971.52
2018-05-26T02:01:03.570Z,101977.30
2018-05-26T02:03:36.555Z,101976.06
2018-05-26T02:06:09.479Z,101969.63
2018-05-26T02:08:42.357Z,101966.72
2018-05-26T02:11:15.754Z,101964.36
2018-05-26T02:13:47.732Z,101968.27
2018-05-26T02:16:19.233Z,101965.48
2018-05-26T02:18:52.161Z,101964.31
2018-05-26T02:21:26.240Z,101960.56
2018-05-26T02:24:00.829Z,101961.07
2018-05-26T02:26:30.748Z,101959.63
2018-05-26T02:29:02.224Z,101953.71
2018-05-26T02:31:33.967Z,101962.81
2018-05-26T02:34:05.769Z,101966.00
2018-05-26T02:36:38.794Z,101965.09
2018-05-26T02:39:13.128Z,101961.08
2018-05-26T02:41:46.421Z,101964.18
2018-05-26T02:44:19.472Z,101969.30
2018-05-26T02:46:54.248Z,101965.63
2018-05-26T02:49:24.878Z,101973.38
2018-05-26T02:51:55.300Z,101967.05
2018-05-26T02:54:26.738Z,101975.41
2018-05-26T02:56:57.982Z,101969.31
2018-05-26T02:59:29.464Z,101971.36
2018-05-26T03:02:02.268Z,101967.94
2018-05-26T03:04:51.394Z,101971.73
2018-05-26T03:07:39.037Z,101971.59
2018-05-26T03:10:28.710Z,101973.48
2018-05-26T03:13:16.794Z,101975.70
2018-05-26T03:15:52.056Z,101975.30
2018-05-26T03:18:25.047Z,101976.45
2018-05-26T03:20:56.404Z,101976.88
2018-05-26T03:23:29.362Z,101979.59
2018-05-26T03:26:02.329Z,101979.35
2018-05-26T03:28:34.382Z,101978.25
2018-05-26T03:31:07.194Z,101979.83
2018-05-26T03:33:40.559Z,101975.27
2018-05-26T03:36:12.450Z,101982.03
2018-05-26T03:38:45.618Z,101985.11
2018-05-26T03:41:18.461Z,101981.59
2018-05-26T03:43:49.143Z,101982.52
2018-05-26T03:46:21.448Z,101975.42
2018-05-26T03:48:56.048Z,101978.66
2018-05-26T03:51:28.459Z,101985.86
2018-05-26T03:54:01.240Z,101989.81
2018-05-26T03:57:09.080Z,101992.92
2018-05-26T04:00:14.991Z,101996.53
2018-05-26T04:02:46.423Z,101991.47
2018-05-26T04:05:17.828Z,101994.48
2018-05-26T04:07:47.762Z,102002.09
2018-05-26T04:10:19.270Z,102010.92
2018-05-26T04:12:49.888Z,102004.72
2018-05-26T04:15:22.712Z,102019.33
2018-05-26T04:17:54.667Z,102009.78
2018-05-26T04:20:27.534Z,102016.64
2018-05-26T04:23:01.050Z,102016.00
2018-05-26T04:25:32.853Z,102014.56
2018-05-26T04:28:04.779Z,102009.34
2018-05-26T04:30:35.723Z,102013.55
2018-05-26T04:33:08.543Z,102020.52
2018-05-26T04:35:42.826Z,102028.70
2018-05-26T04:38:14.935Z,102024.45
2018-05-26T04:40:46.989Z,102027.27
2018-05-26T04:43:18.342Z,102027.55
2018-05-26T04:45:49.798Z,102031.38
2018-05-26T04:48:22.954Z,102035.20
2018-05-26T04:50:54.264Z,102034.72
2018-05-26T04:53:28.760Z,102040.59
2018-05-26T04:55:59.381Z,102038.57
2018-05-26T04:58:32.728Z,102044.91
2018-05-26T05:01:04.000Z,102044.03
2018-05-26T05:03:38.406Z,102047.53
2018-05-26T05:06:11.285Z,102049.52
2018-05-26T05:08:45.512Z,102052.19
2018-05-26T05:11:18.343Z,102057.03
2018-05-26T05:13:52.589Z,102056.38
2018-05-26T05:16:22.509Z,102056.89
2018-05-26T05:18:56.892Z,102056.64
2018-05-26T05:21:31.209Z,102054.51
2018-05-26T05:24:01.142Z,102061.58
2018-05-26T05:26:31.675Z,102062.77
2018-05-26T05:29:03.153Z,102064.88
2018-05-26T05:31:34.795Z,102058.85
2018-05-26T05:34:09.042Z,102063.27
2018-05-26T05:36:40.708Z,102075.38
2018-05-26T05:39:10.722Z,102072.52
2018-05-26T05:41:43.190Z,102075.87
2018-05-26T05:44:14.544Z,102076.94
2018-05-26T05:46:45.890Z,102080.14
2018-05-26T05:49:16.571Z,102083.14
2018-05-26T05:51:49.766Z,102080.39
2018-05-26T05:54:22.742Z,102084.01
2018-05-26T05:56:54.186Z,102083.17
2018-05-26T05:59:27.085Z,102093.92
2018-05-26T06:01:58.495Z,102090.59
2018-05-26T06:04:30.061Z,102090.48
2018-05-26T06:06:59.940Z,102092.54
2018-05-26T06:09:32.710Z,102087.20
2018-05-26T06:12:03.531Z,102082.01
2018-05-26T06:14:37.243Z,102089.45
2018-05-26T06:17:11.542Z,102097.55
2018-05-26T06:19:45.229Z,102092.72
2018-05-26T06:22:18.172Z,102094.81
2018-05-26T06:24:51.845Z,102101.67
2018-05-26T06:27:26.880Z,102103.00
2018-05-26T06:29:58.199Z,102101.91
2018-05-26T06:32:32.030Z,102100.14
2018-05-26T06:35:05.222Z,102091.12
2018-05-26T06:37:35.051Z,102099.25
2018-05-26T06:40:08.495Z,102102.30
2018-05-26T06:42:39.487Z,102109.16
2018-05-26T06:45:11.566Z,102108.84
2018-05-26T06:47:45.127Z,102108.98
2018-05-26T06:50:15.558Z,102108.52
2018-05-26T06:52:44.866Z,102102.40
2018-05-26T06:55:16.193Z,102101.75
2018-05-26T06:57:45.259Z,102097.98
2018-05-26T07:00:18.096Z,102094.53
2018-05-26T07:02:50.964Z,102090.63
2018-05-26T07:05:23.828Z,102093.54
2018-05-26T07:07:55.180Z,102087.26
2018-05-26T07:10:27.586Z,102095.66
2018-05-26T07:13:00.307Z,102093.23
2018-05-26T07:15:30.147Z,102090.88
2018-05-26T07:18:00.379Z,102089.38
2018-05-26T07:20:35.580Z,102091.63
2018-05-26T07:23:06.172Z,102096.53
2018-05-26T07:25:37.500Z,102094.35
2018-05-26T07:28:08.984Z,102089.91
2018-05-26T07:30:43.297Z,102084.45
2018-05-26T07:33:16.074Z,102078.29
2018-05-26T07:35:45.950Z,102085.38
2018-05-26T07:38:19.875Z,102087.16
2018-05-26T07:40:50.939Z,102091.75
2018-05-26T07:43:23.798Z,102091.32
2018-05-26T07:45:55.234Z,102091.55
2018-05-26T07:48:25.948Z,102098.92
2018-05-26T07:50:57.323Z,102093.54
2018-05-26T07:53:30.067Z,102092.79
2018-05-26T07:56:01.893Z,102094.44
2018-05-26T07:58:34.867Z,102102.69
2018-05-26T08:01:07.595Z,102098.99
2018-05-26T08:03:38.157Z,102092.92
2018-05-26T08:06:09.519Z,102095.22
2018-05-26T08:08:40.859Z,102093.01
2018-05-26T08:11:15.263Z,102088.97
2018-05-26T08:13:48.113Z,102094.20
2018-05-26T08:16:17.985Z,102102.63
2018-05-26T08:18:49.048Z,102096.29
2018-05-26T08:21:21.744Z,102096.73
2018-05-26T08:23:54.703Z,102100.17
2018-05-26T08:26:24.512Z,102101.63
2018-05-26T08:28:54.943Z,102106.70
2018-05-26T08:31:27.995Z,102103.68
2018-05-26T08:34:00.782Z,102100.70
2018-05-26T08:36:31.352Z,102100.44
2018-05-26T08:39:03.615Z,102102.80
2018-05-26T08:41:35.736Z,102094.60
2018-05-26T08:44:09.923Z,102106.45
2018-05-26T08:46:44.257Z,102105.75
2018-05-26T08:49:17.010Z,102109.64
2018-05-26T08:51:50.229Z,102113.00
2018-05-26T08:54:21.711Z,102117.30
2018-05-26T08:56:53.020Z,102112.66
2018-05-26T08:59:25.223Z,102120.02
2018-05-26T09:01:55.068Z,102108.91
2018-05-26T09:04:27.984Z,102110.03
2018-05-26T09:06:59.578Z,102118.34
2018-05-26T09:09:31.918Z,102111.59
2018-05-26T09:12:03.258Z,102110.48
2018-05-26T09:14:37.138Z,102109.75
2018-05-26T09:17:06.931Z,102108.08
2018-05-26T09:19:37.261Z,102112.31
2018-05-26T09:22:10.922Z,102112.47
2018-05-26T09:24:44.681Z,102112.58
2018-05-26T09:27:17.645Z,102117.98
2018-05-26T09:29:51.235Z,102120.81
2018-05-26T09:32:22.646Z,102104.93
2018-05-26T09:34:54.464Z,102105.71
2018-05-26T09:37:26.000Z,102111.13
2018-05-26T09:39:58.918Z,102117.34
2018-05-26T09:42:28.900Z,102116.12
2018-05-26T09:45:01.054Z,102110.72
2018-05-26T09:47:33.836Z,102103.03
2018-05-26T09:50:04.181Z,102114.34
2018-05-26T09:52:37.811Z,102114.64
2018-05-26T09:55:09.904Z,102105.88
2018-05-26T09:57:41.155Z,102113.54
2018-05-26T10:00:15.442Z,102105.62
2018-05-26T10:02:48.336Z,102106.14
2018-05-26T10:05:19.664Z,102111.94
2018-05-26T10:07:52.582Z,102103.79
2018-05-26T10:10:23.436Z,102109.55
2018-05-26T10:12:53.828Z,102097.66
2018-05-26T10:15:28.118Z,102108.24
2018-05-26T10:17:59.445Z,102107.12
2018-05-26T10:20:32.428Z,102104.09
2018-05-26T10:23:06.708Z,102102.89
2018-05-26T10:25:40.962Z,102096.36
2018-05-26T10:28:12.855Z,102105.71
2018-05-26T10:30:43.516Z,102094.88
2018-05-26T10:33:16.258Z,102097.32
2018-05-26T10:35:47.574Z,102093.23
2018-05-26T10:38:19.621Z,102097.59
2018-05-26T10:40:52.501Z,102099.02
2018-05-26T10:43:23.894Z,102105.06
2018-05-26T10:46:29.224Z,102095.27
2018-05-26T10:49:01.957Z,102103.90
2018-05-26T10:51:32.342Z,102108.13
2018-05-26T10:54:04.201Z,102103.97
2018-05-26T10:56:37.038Z,102109.78
2018-05-26T10:59:09.975Z,102105.02
2018-05-26T11:01:43.214Z,102107.89
2018-05-26T11:04:16.782Z,102108.44
2018-05-26T11:06:52.500Z,102106.29
2018-05-26T11:09:23.959Z,102102.34
2018-05-26T11:11:55.252Z,102112.45
2018-05-26T11:14:28.167Z,102104.32
2018-05-26T11:17:00.919Z,102106.98
2018-05-26T11:19:31.537Z,102104.14
2018-05-26T11:22:04.403Z,102106.62
2018-05-26T11:24:35.845Z,102087.86
2018-05-26T11:27:08.627Z,102088.18
2018-05-26T11:29:42.920Z,102088.55
2018-05-26T11:32:14.231Z,102090.73
2018-05-26T11:34:48.148Z,102096.28
2018-05-26T11:37:19.527Z,102101.14
2018-05-26T11:39:51.357Z,102098.94
2018-05-26T11:42:24.209Z,102090.65
2018-05-26T11:44:57.085Z,102095.58
2018-05-26T11:47:27.308Z,102096.07
2018-05-26T11:50:00.588Z,102088.78
2018-05-26T11:52:32.025Z,102083.21
2018-05-26T11:55:03.394Z,102089.12
2018-05-26T11:57:34.677Z,102092.77
2018-05-26T12:00:06.089Z,102084.55
2018-05-26T12:02:37.609Z,102090.45
2018-05-26T12:05:08.074Z,102092.66
2018-05-26T12:07:39.443Z,102086.33
2018-05-26T12:10:12.182Z,102080.09
2018-05-26T12:12:46.420Z,102092.47
2018-05-26T12:15:16.333Z,102089.31
2018-05-26T12:17:47.653Z,102089.52
2018-05-26T12:20:20.491Z,102093.08
2018-05-26T12:22:53.552Z,102098.52
2018-05-26T12:25:26.574Z,102099.52
2018-05-26T12:27:56.369Z,102095.91
2018-05-26T12:30:30.657Z,102087.20
2018-05-26T12:33:02.486Z,102075.55
2018-05-26T12:35:36.924Z,102077.36
2018-05-26T12:38:11.194Z,102070.81
2018-05-26T12:40:40.460Z,102086.22
2018-05-26T12:43:13.473Z,102085.75
2018-05-26T12:45:46.412Z,102084.45
2018-05-26T12:48:19.219Z,102076.84
2018-05-26T12:50:50.517Z,102073.45
2018-05-26T12:53:20.421Z,102062.17
2018-05-26T12:55:50.809Z,102078.88
2018-05-26T12:58:23.693Z,102071.91
2018-05-26T13:00:54.525Z,102079.84
2018-05-26T13:03:27.236Z,102067.41
2018-05-26T13:05:59.193Z,102071.64
2018-05-26T13:08:31.804Z,102059.51
2018-05-26T13:11:03.117Z,102065.62
2018-05-26T13:13:36.595Z,102063.30
2018-05-26T13:16:08.806Z,102069.28
2018-05-26T13:18:39.472Z,102061.12
2018-05-26T13:21:13.697Z,102061.11
2018-05-26T13:23:47.959Z,102055.30
2018-05-26T13:26:18.433Z,102059.91
2018-05-26T13:28:51.870Z,102061.85
2018-05-26T13:31:22.603Z,102055.34
2018-05-26T13:33:56.853Z,102061.99
2018-05-26T13:36:29.662Z,102049.20
2018-05-26T13:39:02.523Z,102044.92
2018-05-26T13:41:34.782Z,102046.74
2018-05-26T13:44:05.362Z,102045.50
2018-05-26T13:46:38.109Z,102050.64
2018-05-26T13:49:11.131Z,102033.45
2018-05-26T13:51:41.613Z,102040.63
2018-05-26T13:54:12.947Z,102031.42
2018-05-26T13:56:47.414Z,102037.81
2018-05-26T13:59:21.762Z,102036.63
2018-05-26T14:01:53.118Z,102037.14
2018-05-26T14:04:27.481Z,102032.98
2018-05-26T14:06:59.769Z,102030.25
2018-05-26T14:09:32.534Z,102033.92
2018-05-26T14:12:04.293Z,102029.00
2018-05-26T14:14:36.277Z,102028.33
2018-05-26T14:17:09.187Z,102024.41
2018-05-26T14:19:41.650Z,102017.63
2018-05-26T14:22:14.499Z,102021.49
2018-05-26T14:24:45.777Z,102020.53
2018-05-26T14:27:18.632Z,102017.93
2018-05-26T14:29:50.879Z,102019.97
2018-05-26T14:32:22.448Z,102022.34
2018-05-26T14:34:55.061Z,102010.39
2018-05-26T14:37:29.405Z,102012.70
2018-05-26T14:40:03.671Z,102010.88
2018-05-26T14:42:38.038Z,102007.94
2018-05-26T14:45:12.345Z,102006.83
2018-05-26T14:47:45.171Z,102005.93
2018-05-26T14:50:18.500Z,102003.36
2018-05-26T14:52:48.294Z,101997.75
2018-05-26T14:55:21.179Z,101996.19
2018-05-26T14:57:53.948Z,101990.91
2018-05-26T15:00:26.766Z,101998.30
2018-05-26T15:02:59.641Z,102000.14
2018-05-26T15:05:33.809Z,101995.81
2018-05-26T15:08:06.843Z,101998.80
2018-05-26T15:10:40.153Z,101989.00
2018-05-26T15:13:13.088Z,101988.99
2018-05-26T15:15:47.325Z,101987.80
2018-05-26T15:18:20.625Z,101995.13
2018-05-26T15:20:52.459Z,101993.23
2018-05-26T15:23:25.101Z,101984.59
2018-05-26T15:25:58.151Z,101994.60
2018-05-26T15:28:29.014Z,101989.63
2018-05-26T15:31:00.922Z,101989.42
2018-05-26T15:33:33.846Z,101990.09
2018-05-26T15:36:06.658Z,101985.60
2018-05-26T15:38:38.650Z,101989.31
2018-05-26T15:41:11.443Z,101986.28
2018-05-26T15:43:43.270Z,101980.30
2018-05-26T15:46:14.623Z,101977.95
2018-05-26T15:48:45.650Z,101978.38
2018-05-26T15:51:16.984Z,101970.72
2018-05-26T15:53:51.205Z,101977.73
2018-05-26T15:56:25.670Z,101979.11
2018-05-26T15:58:59.423Z,101986.73
2018-05-26T16:01:29.222Z,101978.87
2018-05-26T16:04:02.033Z,101977.37
2018-05-26T16:06:32.025Z,101975.06
2018-05-26T16:09:04.428Z,101970.25
2018-05-26T16:11:38.890Z,101970.36
2018-05-26T16:14:11.567Z,101968.04
2018-05-26T16:16:44.199Z,101968.32
2018-05-26T16:19:16.502Z,101965.23
2018-05-26T16:21:49.341Z,101965.04
2018-05-26T16:24:23.439Z,101972.37
2018-05-26T16:26:56.261Z,101969.70
2018-05-26T16:29:29.139Z,101967.98
2018-05-26T16:32:03.561Z,101971.12
2018-05-26T16:34:37.388Z,101967.08
2018-05-26T16:37:11.746Z,101970.95
2018-05-26T16:39:41.618Z,101967.28
2018-05-26T16:42:14.635Z,101961.37
2018-05-26T16:44:45.792Z,101967.50
2018-05-26T16:47:19.275Z,101962.88
2018-05-26T16:49:48.336Z,101967.88
2018-05-26T16:52:20.979Z,101966.29
2018-05-26T16:54:53.880Z,101968.07
2018-05-26T16:57:25.317Z,101965.86
2018-05-26T16:59:58.210Z,101961.36
2018-05-26T17:02:28.287Z,101958.73
2018-05-26T17:04:59.610Z,101960.00
2018-05-26T17:07:30.930Z,101959.95
2018-05-26T17:10:03.386Z,101965.47
2018-05-26T17:12:36.314Z,101958.48
2018-05-26T17:15:07.621Z,101965.85
2018-05-26T17:17:39.824Z,101966.08
2018-05-26T17:20:12.631Z,101965.68
2018-05-26T17:22:45.964Z,101965.51
2018-05-26T17:25:19.481Z,101966.46
2018-05-26T17:27:50.902Z,101972.89
2018-05-26T17:30:24.134Z,101970.87
2018-05-26T17:32:56.004Z,101973.19
2018-05-26T17:35:30.690Z,101974.92
2018-05-26T17:38:02.702Z,101967.22
2018-05-26T17:40:34.181Z,101964.30
2018-05-26T17:43:04.877Z,101962.00
2018-05-26T17:45:36.305Z,101965.41
2018-05-26T17:48:05.424Z,101961.77
2018-05-26T17:50:38.358Z,101962.87
2018-05-26T17:53:07.652Z,101964.85
2018-05-26T17:55:42.137Z,101970.81
2018-05-26T17:58:15.536Z,101970.42
2018-05-26T18:00:49.742Z,101960.86
2018-05-26T18:03:23.934Z,101968.52
2018-05-26T18:05:56.670Z,101971.74
2018-05-26T18:08:27.968Z,101970.08
2018-05-26T18:11:02.190Z,101971.95
2018-05-26T18:13:32.228Z,101968.31
2018-05-26T18:16:02.746Z,101965.30
2018-05-26T18:18:35.617Z,101970.50
2018-05-26T18:21:06.939Z,101972.63
2018-05-26T18:23:37.837Z,101977.06
2018-05-26T18:26:10.741Z,101971.78
2018-05-26T18:28:43.652Z,101975.45
2018-05-26T18:31:15.030Z,101973.63
2018-05-26T18:33:49.345Z,101966.42
2018-05-26T18:36:19.194Z,101970.33
2018-05-26T18:38:49.768Z,101969.74
2018-05-26T18:41:22.818Z,101972.84
2018-05-26T18:43:54.949Z,101979.05
2018-05-26T18:46:27.785Z,101975.87
2018-05-26T18:49:02.352Z,101979.94
2018-05-26T18:51:34.704Z,101981.25
2018-05-26T18:54:08.511Z,101985.83
2018-05-26T18:56:38.478Z,101983.26
2018-05-26T18:59:12.378Z,101990.57
2018-05-26T19:01:45.653Z,101984.08
2018-05-26T19:04:20.124Z,101992.45
2018-05-26T19:06:51.577Z,101984.84
2018-05-26T19:09:21.698Z,101992.41
2018-05-26T19:11:53.044Z,101986.91
2018-05-26T19:14:23.472Z,101987.75
2018-05-26T19:16:57.955Z,101997.36
2018-05-26T19:19:31.211Z,102001.59
2018-05-26T19:22:02.174Z,102003.05
2018-05-26T19:24:32.017Z,102001.42
2018-05-26T19:27:02.688Z,102001.38
2018-05-26T19:29:34.601Z,102005.98
2018-05-26T19:32:06.259Z,102004.54
2018-05-26T19:34:38.034Z,102004.52
2018-05-26T19:37:13.461Z,102002.83
2018-05-26T19:39:44.898Z,102000.87
2018-05-26T19:42:16.320Z,101996.91
2018-05-26T19:44:47.696Z,102004.60
2018-05-26T19:47:22.059Z,102006.37
2018-05-26T19:49:53.077Z,102010.67
2018-05-26T19:52:28.057Z,102016.59
2018-05-26T19:55:02.581Z,102024.75
2018-05-26T19:57:34.270Z,102021.41
2018-05-26T20:00:07.369Z,102017.70
2018-05-26T20:02:38.838Z,102020.69
2018-05-26T20:05:10.513Z,102020.61
2018-05-26T20:07:44.139Z,102022.67
2018-05-26T20:10:17.695Z,102027.58
2018-05-26T20:12:48.770Z,102024.83
2018-05-26T20:15:21.030Z,102023.37
2018-05-26T20:17:52.497Z,102025.09
2018-05-26T20:20:24.350Z,102019.92
2018-05-26T20:22:57.170Z,102027.86
2018-05-26T20:25:30.676Z,102025.67
2018-05-26T20:28:03.617Z,102018.81
2018-05-26T20:30:33.523Z,102021.44
2018-05-26T20:33:06.344Z,102018.19
2018-05-26T20:35:38.626Z,102011.98
2018-05-26T20:38:10.463Z,102018.48
2018-05-26T20:40:42.516Z,102023.92
2018-05-26T20:43:12.459Z,102025.16
2018-05-26T20:45:44.366Z,102025.09
2018-05-26T20:48:14.353Z,102026.36
2018-05-26T20:50:46.139Z,102028.98
2018-05-26T20:53:17.642Z,102029.55
2018-05-26T20:55:47.494Z,102026.44
2018-05-26T20:58:20.308Z,102021.72
2018-05-26T21:00:50.189Z,102028.50
2018-05-26T21:03:21.504Z,102029.73
2018-05-26T21:05:54.318Z,102028.98
2018-05-26T21:08:27.502Z,102038.02
2018-05-26T21:11:00.318Z,102038.57
2018-05-26T21:13:30.213Z,102042.52
2018-05-26T21:16:04.438Z,102044.48
2018-05-26T21:18:34.830Z,102040.11
2018-05-26T21:21:07.637Z,102039.13
2018-05-26T21:23:39.718Z,102042.02
2018-05-26T21:26:13.184Z,102047.34
2018-05-26T21:28:45.933Z,102051.39
2018-05-26T21:31:19.886Z,102050.58
2018-05-26T21:33:50.714Z,102045.26
2018-05-26T21:36:25.149Z,102045.38
2018-05-26T21:38:58.223Z,102039.59
2018-05-26T21:41:29.538Z,102049.53
2018-05-26T21:44:00.933Z,102046.22
2018-05-26T21:46:33.757Z,102046.03
2018-05-26T21:49:05.368Z,102045.60
2018-05-26T21:51:38.664Z,102049.88
2018-05-26T21:54:10.198Z,102042.72
2018-05-26T21:56:42.312Z,102049.16
2018-05-26T21:59:16.451Z,102049.22
2018-05-26T22:01:47.880Z,102050.69
2018-05-26T22:04:17.750Z,102052.19
2018-05-26T22:06:50.628Z,102048.13
2018-05-26T22:09:22.036Z,102050.94
2018-05-26T22:11:55.764Z,102043.58
2018-05-26T22:14:27.375Z,102047.78
2018-05-26T22:16:59.639Z,102047.17
2018-05-26T22:19:33.908Z,102047.95
2018-05-26T22:22:06.647Z,102047.89
2018-05-26T22:24:38.099Z,102047.77
2018-05-26T22:27:11.302Z,102045.45
2018-05-26T22:29:41.253Z,102053.30
2018-05-26T22:32:15.594Z,102044.94
2018-05-26T22:34:50.479Z,102048.84
2018-05-26T22:37:21.802Z,102051.95
2018-05-26T22:39:53.397Z,102048.02
2018-05-26T22:42:22.675Z,102046.50
2018-05-26T22:44:55.474Z,102045.79
2018-05-26T22:47:25.383Z,102047.32
2018-05-26T22:49:55.868Z,102045.91
2018-05-26T22:52:27.448Z,102044.98
2018-05-26T22:54:59.309Z,102049.77
2018-05-26T22:57:32.289Z,102042.27
2018-05-26T23:00:02.369Z,102042.59
2018-05-26T23:02:33.890Z,102044.36
2018-05-26T23:05:04.023Z,102044.14
2018-05-26T23:07:37.000Z,102036.70
2018-05-26T23:10:09.641Z,102033.91
2018-05-26T23:12:42.792Z,102037.07
2018-05-26T23:15:14.244Z,102040.00
2018-05-26T23:17:47.826Z,102039.66
2018-05-26T23:20:19.299Z,102040.45
2018-05-26T23:22:52.291Z,102037.65
2018-05-26T23:25:23.769Z,102033.73
2018-05-26T23:27:56.772Z,102032.03
2018-05-26T23:30:31.280Z,102027.19
2018-05-26T23:33:04.000Z,102031.67
2018-05-26T23:35:35.442Z,102033.34
2018-05-26T23:38:06.847Z,102028.56
2018-05-26T23:40:39.182Z,102028.31
2018-05-26T23:43:10.608Z,102023.92
2018-05-26T23:45:42.051Z,102020.28
2018-05-26T23:48:16.360Z,102019.36
2018-05-26T23:50:49.226Z,102015.63
2018-05-26T23:53:22.170Z,102021.86
2018-05-26T23:55:53.461Z,102018.84
2018-05-26T23:58:24.855Z,102008.48
